createdAt,value
2022-09-27T00:03:10.073Z,0.20
2022-09-27T00:13:11.982Z,0.30
2022-09-27T00:23:14.148Z,0.20
2022-09-27T00:33:16.121Z,0.20
2022-09-27T00:43:23.833Z,0.20
2022-09-27T00:53:46.424Z,0.20
2022-09-27T01:04:06.381Z,0.20
2022-09-27T01:14:35.227Z,0.10
2022-09-27T01:25:06.635Z,0.20
2022-09-27T01:35:43.895Z,0.13
2022-09-27T01:45:55.529Z,0.20
2022-09-27T01:56:55.331Z,0.20
2022-09-27T02:07:18.331Z,0.20
2022-09-27T02:17:35.123Z,0.17
2022-09-27T02:28:23.277Z,0.13
2022-09-27T02:38:25.896Z,0.10
2022-09-27T02:48:48.611Z,0.20
2022-09-27T02:59:09.792Z,0.10
2022-09-27T03:09:45.674Z,0.10
2022-09-27T03:19:47.704Z,0.00
2022-09-27T03:30:16.060Z,0.10
2022-09-27T03:40:18.038Z,0.10
2022-09-27T03:50:20.428Z,0.30
2022-09-27T04:00:22.798Z,0.10
2022-09-27T04:10:25.148Z,0.10
2022-09-27T04:20:27.297Z,0.10
2022-09-27T04:30:30.210Z,0.10
2022-09-27T04:40:49.091Z,0.10
2022-09-27T04:50:59.641Z,0.10
2022-09-27T05:01:04.144Z,0.10
2022-09-27T05:11:38.084Z,0.17
2022-09-27T05:22:03.221Z,0.10
2022-09-27T05:32:06.221Z,0.10
2022-09-27T05:42:10.330Z,0.20
2022-09-27T05:52:16.053Z,0.10
2022-09-27T06:02:20.307Z,0.40
2022-09-27T06:12:58.861Z,0.60
2022-09-27T06:23:36.000Z,0.90
2022-09-27T06:33:49.146Z,2.35
2022-09-27T06:43:51.768Z,2.28
2022-09-27T06:54:31.869Z,1.75
2022-09-27T07:04:34.673Z,1.75
2022-09-27T07:14:40.075Z,1.77
2022-09-27T07:24:46.212Z,1.38
2022-09-27T07:34:49.352Z,1.00
2022-09-27T07:44:51.583Z,0.98
2022-09-27T07:54:59.125Z,0.85
2022-09-27T08:05:14.267Z,0.80
2022-09-27T08:15:17.911Z,0.60
2022-09-27T08:25:22.496Z,0.57
2022-09-27T08:35:44.765Z,0.35
2022-09-27T08:46:02.276Z,0.50
2022-09-27T08:56:08.607Z,0.40
2022-09-27T09:06:52.901Z,0.60
2022-09-27T09:17:16.487Z,0.52
2022-09-27T09:28:11.724Z,0.30
2022-09-27T09:38:21.595Z,0.43
2022-09-27T09:48:46.824Z,0.45
2022-09-27T09:59:03.722Z,0.60
2022-09-27T10:09:16.485Z,0.63
2022-09-27T10:19:33.088Z,0.50
2022-09-27T10:29:39.157Z,0.40
2022-09-27T10:39:53.696Z,0.73
2022-09-27T10:50:05.237Z,4.07
2022-09-27T11:00:32.358Z,9.10
2022-09-27T11:10:37.573Z,14.25
2022-09-27T11:21:00.045Z,7.30
2022-09-27T11:31:08.006Z,10.52
2022-09-27T11:41:55.480Z,13.27
2022-09-27T11:52:22.650Z,12.23
2022-09-27T12:02:46.506Z,10.35
2022-09-27T12:12:55.797Z,7.05
2022-09-27T12:23:07.253Z,6.18
2022-09-27T12:33:40.835Z,5.07
2022-09-27T12:43:48.975Z,4.82
2022-09-27T12:54:32.989Z,3.75
2022-09-27T13:04:57.958Z,3.33
2022-09-27T13:15:33.524Z,2.60
2022-09-27T13:26:03.862Z,2.58
2022-09-27T13:36:16.428Z,2.30
2022-09-27T13:46:25.595Z,1.67
2022-09-27T13:56:40.345Z,1.50
2022-09-27T14:06:48.517Z,1.33
2022-09-27T14:16:51.787Z,1.27
2022-09-27T14:27:32.159Z,1.20
2022-09-27T14:37:44.343Z,1.00
2022-09-27T14:47:51.340Z,0.90
2022-09-27T14:58:02.966Z,1.00
2022-09-27T15:08:06.461Z,0.70
2022-09-27T15:18:29.881Z,0.50
2022-09-27T15:28:34.095Z,0.50
2022-09-27T15:38:47.442Z,0.60
2022-09-27T15:49:17.730Z,0.50
2022-09-27T15:59:26.682Z,0.40
2022-09-27T16:09:28.564Z,0.30
2022-09-27T16:19:30.408Z,0.30
2022-09-27T16:29:32.290Z,0.40
2022-09-27T16:39:34.090Z,0.25
2022-09-27T16:49:54.759Z,0.30
2022-09-27T16:59:57.339Z,0.38
2022-09-27T17:09:59.214Z,0.40
2022-09-27T17:20:01.208Z,0.30
2022-09-27T17:30:03.311Z,0.40
2022-09-27T17:40:05.790Z,0.30
2022-09-27T17:50:25.730Z,0.30
2022-09-27T18:00:27.584Z,0.22
2022-09-27T18:10:32.160Z,0.20
2022-09-27T18:20:34.960Z,0.35
2022-09-27T18:30:36.780Z,0.30
2022-09-27T18:40:55.705Z,0.25
2022-09-27T18:51:06.011Z,0.20
2022-09-27T19:01:11.122Z,0.10
2022-09-27T19:11:16.405Z,0.20
2022-09-27T19:21:21.313Z,0.30
2022-09-27T19:31:27.215Z,0.22
2022-09-27T19:41:29.215Z,0.17
2022-09-27T19:51:31.315Z,0.20
2022-09-27T20:01:33.113Z,0.32
2022-09-27T20:11:34.993Z,0.20
2022-09-27T20:21:36.998Z,0.20
2022-09-27T20:32:02.967Z,0.20
2022-09-27T20:42:05.113Z,0.30
2022-09-27T20:52:07.027Z,0.30
2022-09-27T21:02:08.909Z,0.28
2022-09-27T21:12:10.704Z,0.17
2022-09-27T21:22:15.039Z,0.10
2022-09-27T21:32:16.763Z,0.20
2022-09-27T21:42:18.526Z,0.13
2022-09-27T21:52:20.287Z,0.20
2022-09-27T22:02:23.352Z,0.20
2022-09-27T22:12:25.112Z,0.20
2022-09-27T22:22:26.847Z,0.20
2022-09-27T22:32:28.655Z,0.20
2022-09-27T22:42:30.438Z,0.10
2022-09-27T22:52:32.234Z,0.10
2022-09-27T23:02:34.339Z,0.20
2022-09-27T23:48:00.174Z,0.20
2022-09-27T23:58:02.448Z,0.20
